createdAt,value
2022-09-25T00:01:15.222Z,9.03
2022-09-25T00:03:42.264Z,7.93
2022-09-25T00:06:14.844Z,8.30
2022-09-25T00:08:41.866Z,8.30
2022-09-25T00:11:12.545Z,8.33
2022-09-25T00:13:41.178Z,8.63
2022-09-25T00:16:24.846Z,8.53
2022-09-25T00:19:10.686Z,7.70
2022-09-25T00:21:38.512Z,9.70
2022-09-25T00:24:09.607Z,8.60
2022-09-25T00:26:40.972Z,9.30
2022-09-25T00:29:09.167Z,8.67
2022-09-25T00:31:37.296Z,8.57
2022-09-25T00:34:05.995Z,8.90
2022-09-25T00:36:35.284Z,8.50
2022-09-25T00:39:03.024Z,9.80
2022-09-25T00:41:33.581Z,8.40
2022-09-25T00:44:04.043Z,10.30
2022-09-25T00:46:42.536Z,9.63
2022-09-25T00:49:20.052Z,9.50
2022-09-25T00:51:56.450Z,10.03
2022-09-25T00:54:30.213Z,9.03
2022-09-25T00:56:59.405Z,9.90
2022-09-25T00:59:33.417Z,9.80
2022-09-25T01:02:02.402Z,9.20
2022-09-25T01:04:34.815Z,10.17
2022-09-25T01:07:02.114Z,11.17
2022-09-25T01:09:29.821Z,12.00
2022-09-25T01:11:56.868Z,10.83
2022-09-25T01:14:26.888Z,10.60
2022-09-25T01:17:05.459Z,11.37
2022-09-25T01:20:02.580Z,10.13
2022-09-25T01:22:55.521Z,10.60
2022-09-25T01:25:44.969Z,10.23
2022-09-25T01:28:40.799Z,10.63
2022-09-25T01:31:19.790Z,10.07
2022-09-25T01:33:56.028Z,9.77
2022-09-25T01:36:35.897Z,9.73
2022-09-25T01:39:16.722Z,9.77
2022-09-25T01:42:01.587Z,11.17
2022-09-25T01:44:34.440Z,11.03
2022-09-25T01:47:19.111Z,11.80
2022-09-25T01:49:55.449Z,9.00
2022-09-25T01:52:33.916Z,9.00
2022-09-25T01:55:11.421Z,9.00
2022-09-25T01:57:44.127Z,8.17
2022-09-25T02:00:19.644Z,8.60
2022-09-25T02:02:56.050Z,8.83
2022-09-25T02:05:50.684Z,9.27
2022-09-25T02:08:23.669Z,9.47
2022-09-25T02:10:55.944Z,8.90
2022-09-25T02:13:26.332Z,8.90
2022-09-25T02:16:17.433Z,8.97
2022-09-25T02:19:05.689Z,8.03
2022-09-25T02:21:50.504Z,8.33
2022-09-25T02:24:48.033Z,8.10
2022-09-25T02:27:15.945Z,8.10
2022-09-25T02:29:43.117Z,8.80
2022-09-25T02:32:17.786Z,9.00
2022-09-25T02:34:44.831Z,8.97
2022-09-25T02:37:14.165Z,8.00
2022-09-25T02:39:42.824Z,9.60
2022-09-25T02:42:33.703Z,9.03
2022-09-25T02:45:15.607Z,9.33
2022-09-25T02:48:00.654Z,8.83
2022-09-25T02:50:37.921Z,9.40
2022-09-25T02:53:29.216Z,9.03
2022-09-25T02:56:14.473Z,8.33
2022-09-25T02:58:53.287Z,8.80
2022-09-25T03:01:24.429Z,9.33
2022-09-25T03:03:58.872Z,9.93
2022-09-25T03:06:28.165Z,9.00
2022-09-25T03:08:56.807Z,9.90
2022-09-25T03:11:29.646Z,8.80
2022-09-25T03:13:58.121Z,8.87
2022-09-25T03:16:40.436Z,9.77
2022-09-25T03:19:08.112Z,9.63
2022-09-25T03:21:34.856Z,10.13
2022-09-25T03:24:01.811Z,10.43
2022-09-25T03:26:32.071Z,9.53
2022-09-25T03:29:02.092Z,9.30
2022-09-25T03:31:33.570Z,9.50
2022-09-25T03:34:04.307Z,8.83
2022-09-25T03:36:31.489Z,10.23
2022-09-25T03:39:01.751Z,9.17
2022-09-25T03:41:34.583Z,10.03
2022-09-25T03:44:01.798Z,8.83
2022-09-25T03:46:35.362Z,9.73
2022-09-25T03:49:04.600Z,9.30
2022-09-25T03:51:36.523Z,9.27
2022-09-25T03:54:04.824Z,9.40
2022-09-25T03:56:33.244Z,10.00
2022-09-25T03:59:00.219Z,9.90
2022-09-25T04:01:29.531Z,9.60
2022-09-25T04:03:57.289Z,9.10
2022-09-25T04:06:26.443Z,9.90
2022-09-25T04:08:54.319Z,9.57
2022-09-25T04:11:23.201Z,10.23
2022-09-25T04:13:50.392Z,9.33
2022-09-25T04:16:17.726Z,10.20
2022-09-25T04:18:44.681Z,10.50
2022-09-25T04:21:13.575Z,10.07
2022-09-25T04:23:41.314Z,10.20
2022-09-25T04:26:09.376Z,10.37
2022-09-25T04:28:37.109Z,10.53
2022-09-25T04:31:04.653Z,10.40
2022-09-25T04:33:47.427Z,10.83
2022-09-25T04:36:15.908Z,10.40
2022-09-25T04:38:42.729Z,11.30
2022-09-25T04:41:09.510Z,10.77
2022-09-25T04:43:36.298Z,11.30
2022-09-25T04:46:08.718Z,11.33
2022-09-25T04:48:35.957Z,11.10
2022-09-25T04:51:04.235Z,10.90
2022-09-25T04:53:32.712Z,11.20
2022-09-25T04:56:13.985Z,10.97
2022-09-25T04:58:50.135Z,10.90
2022-09-25T05:01:19.417Z,10.93
2022-09-25T05:03:50.541Z,10.90
2022-09-25T05:06:17.370Z,10.07
2022-09-25T05:08:44.003Z,11.27
2022-09-25T05:11:11.401Z,12.20
2022-09-25T05:13:38.337Z,12.20
2022-09-25T05:16:05.324Z,13.50
2022-09-25T05:18:32.126Z,13.07
2022-09-25T05:21:04.159Z,12.70
2022-09-25T05:23:30.930Z,11.53
2022-09-25T05:26:03.759Z,12.13
2022-09-25T05:28:33.903Z,11.20
2022-09-25T05:31:04.953Z,10.83
2022-09-25T05:33:32.873Z,10.17
2022-09-25T05:36:04.248Z,10.70
2022-09-25T05:38:35.836Z,11.23
2022-09-25T05:41:07.495Z,10.53
2022-09-25T05:43:40.074Z,10.90
2022-09-25T05:46:07.562Z,10.67
2022-09-25T05:48:34.409Z,10.50
2022-09-25T05:51:01.512Z,11.97
2022-09-25T05:53:28.907Z,11.10
2022-09-25T05:55:59.059Z,11.03
2022-09-25T05:58:27.325Z,10.87
2022-09-25T06:00:54.943Z,10.40
2022-09-25T06:03:21.959Z,11.90
2022-09-25T06:05:48.853Z,11.70
2022-09-25T06:08:15.634Z,11.87
2022-09-25T06:10:42.607Z,9.93
2022-09-25T06:13:09.362Z,10.50
2022-09-25T06:15:39.191Z,10.00
2022-09-25T06:18:07.952Z,9.73
2022-09-25T06:20:35.914Z,10.23
2022-09-25T06:23:04.486Z,10.30
2022-09-25T06:25:40.872Z,11.10
2022-09-25T06:28:08.452Z,10.00
2022-09-25T06:30:36.941Z,10.23
2022-09-25T06:33:07.296Z,11.33
2022-09-25T06:35:41.177Z,10.00
2022-09-25T06:38:12.331Z,9.10
2022-09-25T06:40:41.497Z,9.83
2022-09-25T06:43:15.301Z,9.90
2022-09-25T06:45:43.119Z,8.30
2022-09-25T06:48:13.071Z,9.47
2022-09-25T06:50:42.957Z,9.20
2022-09-25T06:53:11.450Z,8.20
2022-09-25T06:55:38.940Z,8.20
2022-09-25T06:58:08.320Z,7.97
2022-09-25T07:00:35.239Z,7.67
2022-09-25T07:03:20.642Z,8.53
2022-09-25T07:05:48.326Z,8.70
2022-09-25T07:08:18.532Z,8.93
2022-09-25T07:10:53.811Z,9.30
2022-09-25T07:13:25.910Z,8.80
2022-09-25T07:15:57.104Z,9.07
2022-09-25T07:18:25.338Z,9.63
2022-09-25T07:20:52.909Z,8.83
2022-09-25T07:23:21.402Z,8.63
2022-09-25T07:25:49.694Z,8.10
2022-09-25T07:28:18.949Z,8.47
2022-09-25T07:30:46.987Z,7.60
2022-09-25T07:33:13.779Z,8.13
2022-09-25T07:35:40.992Z,8.80
2022-09-25T07:38:07.905Z,8.37
2022-09-25T07:40:35.388Z,8.60
2022-09-25T07:43:03.500Z,8.77
2022-09-25T07:45:31.255Z,7.60
2022-09-25T07:48:00.699Z,7.20
2022-09-25T07:50:32.230Z,7.70
2022-09-25T07:52:59.138Z,7.13
2022-09-25T07:55:28.087Z,7.47
2022-09-25T07:57:58.414Z,7.07
2022-09-25T08:00:25.391Z,7.10
2022-09-25T08:02:59.490Z,5.70
2022-09-25T08:05:27.512Z,6.90
2022-09-25T08:07:54.950Z,6.30
2022-09-25T08:10:22.234Z,6.90
2022-09-25T08:12:49.728Z,7.90
2022-09-25T08:15:16.718Z,8.20
2022-09-25T08:17:43.475Z,8.50
2022-09-25T08:20:10.954Z,10.00
2022-09-25T08:22:37.774Z,8.33
2022-09-25T08:25:04.973Z,8.57
2022-09-25T08:27:32.158Z,8.97
2022-09-25T08:29:58.863Z,9.67
2022-09-25T08:32:25.835Z,9.07
2022-09-25T08:34:52.897Z,9.33
2022-09-25T08:37:21.018Z,9.07
2022-09-25T08:39:47.833Z,10.23
2022-09-25T08:42:26.153Z,9.37
2022-09-25T08:45:21.625Z,9.33
2022-09-25T08:48:11.260Z,9.50
2022-09-25T08:50:38.136Z,10.37
2022-09-25T08:53:11.463Z,11.27
2022-09-25T08:55:59.876Z,10.07
2022-09-25T08:58:31.938Z,9.50
2022-09-25T09:01:06.380Z,9.60
2022-09-25T09:03:40.536Z,9.60
2022-09-25T09:06:12.251Z,9.17
2022-09-25T09:08:40.772Z,8.47
2022-09-25T09:11:13.883Z,8.97
2022-09-25T09:13:53.076Z,8.20
2022-09-25T09:16:22.787Z,9.53
2022-09-25T09:18:50.240Z,9.57
2022-09-25T09:21:52.535Z,7.67
2022-09-25T09:24:31.294Z,9.17
2022-09-25T09:27:19.981Z,7.03
2022-09-25T09:30:13.138Z,6.93
2022-09-25T09:33:11.303Z,6.83
2022-09-25T09:35:43.527Z,5.77
2022-09-25T09:38:28.422Z,4.87
2022-09-25T09:41:33.727Z,5.47
2022-09-25T09:44:03.272Z,5.03
2022-09-25T09:46:30.112Z,4.63
2022-09-25T09:49:04.640Z,4.10
2022-09-25T09:51:40.924Z,4.30
2022-09-25T09:54:16.260Z,3.83
2022-09-25T09:56:50.282Z,4.57
2022-09-25T09:59:27.520Z,4.20
2022-09-25T10:02:24.720Z,2.57
2022-09-25T10:04:53.960Z,2.30
2022-09-25T10:07:23.104Z,2.77
2022-09-25T10:09:50.695Z,2.83
2022-09-25T10:12:35.252Z,2.93
2022-09-25T10:15:07.510Z,2.60
2022-09-25T10:17:37.866Z,2.07
2022-09-25T10:20:15.516Z,2.73
2022-09-25T10:22:46.249Z,1.50
2022-09-25T10:25:13.508Z,1.10
2022-09-25T10:27:45.942Z,3.10
2022-09-25T10:30:20.272Z,3.43
2022-09-25T10:33:15.666Z,0.70
2022-09-25T10:35:45.950Z,1.07
2022-09-25T10:38:29.789Z,1.00
2022-09-25T10:41:19.848Z,0.70
2022-09-25T10:44:01.175Z,0.60
2022-09-25T10:46:52.649Z,0.60
2022-09-25T10:49:43.561Z,0.77
2022-09-25T10:52:15.403Z,0.90
2022-09-25T10:54:45.752Z,1.37
2022-09-25T10:57:25.462Z,1.20
2022-09-25T10:59:53.077Z,1.03
2022-09-25T11:02:41.477Z,0.90
2022-09-25T11:05:18.144Z,1.07
2022-09-25T11:07:52.468Z,1.03
2022-09-25T11:10:28.013Z,1.37
2022-09-25T11:12:56.629Z,1.00
2022-09-25T11:15:27.332Z,1.20
2022-09-25T11:17:56.591Z,0.80
2022-09-25T11:20:29.625Z,1.00
2022-09-25T11:23:05.914Z,0.87
2022-09-25T11:25:49.250Z,1.10
2022-09-25T11:28:34.952Z,1.27
2022-09-25T11:31:14.792Z,1.00
2022-09-25T11:34:00.820Z,1.30
2022-09-25T11:36:59.607Z,0.83
2022-09-25T11:40:23.240Z,1.00
2022-09-25T11:43:04.525Z,1.00
2022-09-25T11:45:54.256Z,0.90
2022-09-25T11:48:35.115Z,0.70
2022-09-25T11:51:19.652Z,0.77
2022-09-25T11:54:33.234Z,0.67
2022-09-25T11:57:11.655Z,0.70
2022-09-25T12:00:03.690Z,0.70
2022-09-25T12:02:50.680Z,0.77
2022-09-25T12:05:36.076Z,0.70
2022-09-25T12:08:16.122Z,0.80
2022-09-25T12:11:08.017Z,0.70
2022-09-25T12:13:54.480Z,1.90
2022-09-25T12:17:00.882Z,1.10
2022-09-25T12:20:11.599Z,1.70
2022-09-25T12:22:50.043Z,2.20
2022-09-25T12:25:26.563Z,1.97
2022-09-25T12:28:12.801Z,2.70
2022-09-25T12:31:06.039Z,4.30
2022-09-25T12:34:14.781Z,1.67
2022-09-25T12:36:47.926Z,1.80
2022-09-25T12:39:41.223Z,1.40
2022-09-25T12:42:17.298Z,1.23
2022-09-25T12:44:55.785Z,1.10
2022-09-25T12:47:29.375Z,1.20
2022-09-25T12:50:29.115Z,1.37
2022-09-25T12:53:05.752Z,1.43
2022-09-25T12:55:42.672Z,1.20
2022-09-25T12:58:18.542Z,2.20
2022-09-25T13:00:49.581Z,1.70
2022-09-25T13:03:23.841Z,1.57
2022-09-25T13:06:00.515Z,1.83
2022-09-25T13:09:12.319Z,2.20
2022-09-25T13:11:47.962Z,2.10
2022-09-25T13:14:34.509Z,2.20
2022-09-25T13:17:02.168Z,1.50
2022-09-25T13:19:33.226Z,1.50
2022-09-25T13:22:04.196Z,2.07
2022-09-25T13:24:39.266Z,1.60
2022-09-25T13:27:15.824Z,1.57
2022-09-25T13:29:43.209Z,1.87
2022-09-25T13:32:17.424Z,2.10
2022-09-25T13:34:44.816Z,2.47
2022-09-25T13:37:13.675Z,2.20
2022-09-25T13:40:07.814Z,3.30
2022-09-25T13:42:38.168Z,2.80
2022-09-25T13:45:29.963Z,2.87
2022-09-25T13:48:32.699Z,2.40
2022-09-25T13:51:35.666Z,2.50
2022-09-25T13:54:27.139Z,2.33
2022-09-25T13:56:54.993Z,2.43
2022-09-25T13:59:37.170Z,6.20
2022-09-25T14:02:38.473Z,2.10
2022-09-25T14:05:05.971Z,2.10
2022-09-25T14:07:33.980Z,2.30
2022-09-25T14:10:03.451Z,3.30
2022-09-25T14:12:57.311Z,2.30
2022-09-25T14:15:35.474Z,2.87
2022-09-25T14:18:09.870Z,2.30
2022-09-25T14:20:45.594Z,1.80
2022-09-25T14:23:14.056Z,1.70
2022-09-25T14:25:44.636Z,2.13
2022-09-25T14:28:21.950Z,2.77
2022-09-25T14:31:07.274Z,1.87
2022-09-25T14:33:50.804Z,1.97
2022-09-25T14:36:49.408Z,1.80
2022-09-25T14:39:37.494Z,1.70
2022-09-25T14:42:24.973Z,1.40
2022-09-25T14:45:06.210Z,1.27
2022-09-25T14:47:38.581Z,0.90
2022-09-25T14:50:06.806Z,1.33
2022-09-25T14:52:36.252Z,1.80
2022-09-25T14:55:04.380Z,1.07
2022-09-25T14:57:35.407Z,1.20
2022-09-25T15:00:06.731Z,1.20
2022-09-25T15:02:40.938Z,1.30
2022-09-25T15:05:45.348Z,1.10
2022-09-25T15:08:44.774Z,1.30
2022-09-25T15:11:16.718Z,2.27
2022-09-25T15:13:45.064Z,1.60
2022-09-25T15:16:33.831Z,1.23
2022-09-25T15:19:03.423Z,1.30
2022-09-25T15:21:32.264Z,1.10
2022-09-25T15:24:04.992Z,1.63
2022-09-25T15:26:33.573Z,1.60
2022-09-25T15:29:01.573Z,1.73
2022-09-25T15:31:37.163Z,1.17
2022-09-25T15:34:12.004Z,1.80
2022-09-25T15:36:38.829Z,1.43
2022-09-25T15:39:17.836Z,1.50
2022-09-25T15:41:45.021Z,2.40
2022-09-25T15:44:13.564Z,1.73
2022-09-25T15:46:44.908Z,1.77
2022-09-25T15:49:19.947Z,1.30
2022-09-25T15:52:00.250Z,1.27
2022-09-25T15:54:29.880Z,1.57
2022-09-25T15:56:58.257Z,1.70
2022-09-25T15:59:26.967Z,1.60
2022-09-25T16:02:14.793Z,2.30
2022-09-25T16:04:50.516Z,2.70
2022-09-25T16:07:37.458Z,3.90
2022-09-25T16:10:12.042Z,4.23
2022-09-25T16:12:44.457Z,3.47
2022-09-25T16:15:27.637Z,2.90
2022-09-25T16:18:15.746Z,2.57
2022-09-25T16:20:43.548Z,2.60
2022-09-25T16:23:31.311Z,2.27
2022-09-25T16:25:59.093Z,2.17
2022-09-25T16:28:28.771Z,1.90
2022-09-25T16:30:55.433Z,1.90
2022-09-25T16:33:26.806Z,1.90
2022-09-25T16:36:12.850Z,2.27
2022-09-25T16:39:02.422Z,2.33
2022-09-25T16:41:30.048Z,1.87
2022-09-25T16:44:14.871Z,2.40
2022-09-25T16:46:44.698Z,2.40
2022-09-25T16:49:12.741Z,3.17
2022-09-25T16:51:45.862Z,6.20
2022-09-25T16:54:15.634Z,9.13
2022-09-25T16:56:44.082Z,2.90
2022-09-25T16:59:23.394Z,5.33
2022-09-25T17:01:53.674Z,5.87
2022-09-25T17:04:29.521Z,5.50
2022-09-25T17:07:01.070Z,5.33
2022-09-25T17:09:31.388Z,3.73
2022-09-25T17:12:07.298Z,4.03
2022-09-25T17:14:34.693Z,3.50
2022-09-25T17:17:01.655Z,14.30
2022-09-25T17:19:29.484Z,17.00
2022-09-25T17:21:57.817Z,6.50
2022-09-25T17:24:27.287Z,7.17
2022-09-25T17:26:54.526Z,8.20
2022-09-25T17:29:22.563Z,21.90
2022-09-25T17:31:51.429Z,5.77
2022-09-25T17:34:24.798Z,6.30
2022-09-25T17:36:52.009Z,6.77
2022-09-25T17:39:20.289Z,7.43
2022-09-25T17:41:47.260Z,7.70
2022-09-25T17:44:18.483Z,7.10
2022-09-25T17:46:45.513Z,6.80
2022-09-25T17:49:12.511Z,6.50
2022-09-25T17:51:41.822Z,6.00
2022-09-25T17:54:09.887Z,6.40
2022-09-25T17:56:37.721Z,6.50
2022-09-25T17:59:05.849Z,6.43
2022-09-25T18:01:39.083Z,6.17
2022-09-25T18:04:24.442Z,6.20
2022-09-25T18:06:52.015Z,5.97
2022-09-25T18:09:21.345Z,6.57
2022-09-25T18:11:48.716Z,5.70
2022-09-25T18:14:16.002Z,7.67
2022-09-25T18:16:44.345Z,7.07
2022-09-25T18:19:38.715Z,7.80
2022-09-25T18:22:19.977Z,8.23
2022-09-25T18:24:56.442Z,8.23
2022-09-25T18:27:26.964Z,7.13
2022-09-25T18:29:54.483Z,6.03
2022-09-25T18:32:21.494Z,20.93
2022-09-25T18:34:48.366Z,15.00
2022-09-25T18:37:17.519Z,23.00
2022-09-25T18:39:49.714Z,21.00
2022-09-25T18:42:16.529Z,18.30
2022-09-25T18:44:45.162Z,16.07
2022-09-25T18:47:11.945Z,13.97
2022-09-25T18:49:38.676Z,22.87
2022-09-25T18:52:06.326Z,14.10
2022-09-25T18:54:33.080Z,13.00
2022-09-25T18:56:59.940Z,12.23
2022-09-25T18:59:27.066Z,10.80
2022-09-25T19:01:55.646Z,10.77
2022-09-25T19:04:26.779Z,11.87
2022-09-25T19:06:54.753Z,10.77
2022-09-25T19:09:27.382Z,8.37
2022-09-25T19:11:55.363Z,7.83
2022-09-25T19:14:24.586Z,8.00
2022-09-25T19:16:53.682Z,9.47
2022-09-25T19:19:21.079Z,10.50
2022-09-25T19:21:48.596Z,10.63
2022-09-25T19:24:19.941Z,12.03
2022-09-25T19:26:49.895Z,11.53
2022-09-25T19:29:16.848Z,8.57
2022-09-25T19:31:43.617Z,8.43
2022-09-25T19:34:10.883Z,9.60
2022-09-25T19:36:39.375Z,8.97
2022-09-25T19:39:07.326Z,10.33
2022-09-25T19:41:38.003Z,9.57
2022-09-25T19:44:12.755Z,6.73
2022-09-25T19:46:43.249Z,5.37
2022-09-25T19:49:11.711Z,6.80
2022-09-25T19:51:38.772Z,7.73
2022-09-25T19:54:07.437Z,9.33
2022-09-25T19:56:41.544Z,9.83
2022-09-25T19:59:15.810Z,8.93
2022-09-25T20:01:43.672Z,9.60
2022-09-25T20:04:18.026Z,8.37
2022-09-25T20:06:45.990Z,7.87
2022-09-25T20:09:14.556Z,8.50
2022-09-25T20:11:41.399Z,8.67
2022-09-25T20:14:10.022Z,8.73
2022-09-25T20:16:39.774Z,9.10
2022-09-25T20:19:07.876Z,8.43
2022-09-25T20:21:37.740Z,8.03
2022-09-25T20:24:09.379Z,8.30
2022-09-25T20:26:36.424Z,8.30
2022-09-25T20:29:12.405Z,8.20
2022-09-25T20:31:45.630Z,8.20
2022-09-25T20:34:14.744Z,7.50
2022-09-25T20:36:42.149Z,7.87
2022-09-25T20:39:09.990Z,8.70
2022-09-25T20:41:41.711Z,8.07
2022-09-25T20:44:08.780Z,8.17
2022-09-25T20:46:35.846Z,9.67
2022-09-25T20:49:03.479Z,10.73
2022-09-25T20:51:35.190Z,10.47
2022-09-25T20:54:10.060Z,10.03
2022-09-25T20:56:46.831Z,9.53
2022-09-25T20:59:16.043Z,9.60
2022-09-25T21:01:43.864Z,9.20
2022-09-25T21:04:10.877Z,6.30
2022-09-25T21:06:40.229Z,7.03
2022-09-25T21:09:20.363Z,6.67
2022-09-25T21:11:47.324Z,8.57
2022-09-25T21:14:21.529Z,8.97
2022-09-25T21:16:49.908Z,6.67
2022-09-25T21:19:18.914Z,7.30
2022-09-25T21:21:45.793Z,7.53
2022-09-25T21:24:18.849Z,6.40
2022-09-25T21:26:49.668Z,6.23
2022-09-25T21:29:20.709Z,7.17
2022-09-25T21:31:50.214Z,6.87
2022-09-25T21:34:20.039Z,5.50
2022-09-25T21:36:48.092Z,4.67
2022-09-25T21:39:15.653Z,5.03
2022-09-25T21:41:45.940Z,5.20
2022-09-25T21:44:15.639Z,7.10
2022-09-25T21:46:44.179Z,7.03
2022-09-25T21:49:21.599Z,6.27
2022-09-25T21:51:52.160Z,6.30
2022-09-25T21:54:20.755Z,6.17
2022-09-25T21:56:51.042Z,6.40
2022-09-25T21:59:18.197Z,6.27
2022-09-25T22:01:46.719Z,5.77
2022-09-25T22:04:14.253Z,6.23
2022-09-25T22:06:44.385Z,5.57
2022-09-25T22:09:16.094Z,5.10
2022-09-25T22:11:43.497Z,6.00
2022-09-25T22:14:15.353Z,5.70
2022-09-25T22:16:44.676Z,7.40
2022-09-25T22:19:13.670Z,6.13
2022-09-25T22:21:42.228Z,7.67
2022-09-25T22:24:10.257Z,7.00
2022-09-25T22:26:41.457Z,6.57
2022-09-25T22:29:08.684Z,6.37
2022-09-25T22:31:38.341Z,6.50
2022-09-25T22:34:07.202Z,6.67
2022-09-25T22:36:36.309Z,6.00
2022-09-25T22:39:05.940Z,6.70
2022-09-25T22:41:35.222Z,7.03
2022-09-25T22:44:05.875Z,6.20
2022-09-25T22:46:32.596Z,5.90
2022-09-25T22:48:59.822Z,6.00
2022-09-25T22:51:27.379Z,5.93
2022-09-25T22:53:57.798Z,6.20
2022-09-25T22:56:28.054Z,5.53
2022-09-25T22:59:06.475Z,5.37
2022-09-25T23:01:38.169Z,5.30
2022-09-25T23:04:07.977Z,5.13
2022-09-25T23:06:38.404Z,6.00
2022-09-25T23:09:14.889Z,5.50
2022-09-25T23:11:42.005Z,6.10
2022-09-25T23:14:22.145Z,5.90
2022-09-25T23:16:51.042Z,5.97
2022-09-25T23:19:20.862Z,5.80
2022-09-25T23:21:48.248Z,6.17
2022-09-25T23:24:19.951Z,7.23
2022-09-25T23:26:47.361Z,9.50
2022-09-25T23:29:16.702Z,10.50
2022-09-25T23:31:46.806Z,11.47
2022-09-25T23:34:14.906Z,10.00
2022-09-25T23:36:42.545Z,8.83
2022-09-25T23:39:14.079Z,8.13
2022-09-25T23:41:41.740Z,7.20
2022-09-25T23:44:10.906Z,6.67
2022-09-25T23:46:42.461Z,6.57
2022-09-25T23:49:10.301Z,6.13
2022-09-25T23:51:37.929Z,5.53
2022-09-25T23:54:06.358Z,5.47
2022-09-25T23:56:34.849Z,6.17
2022-09-25T23:59:07.596Z,5.53
